Time;durP1;ratioP1;P1;durP2;ratioP2;P2;SDS_P1;SDS_P2;PMS_P1;PMS_P2;Temp;Humidity;BMP_temperature;BMP_pressure;BME280_temperature;BME280_humidity;BME280_pressure;Samples;Min_cycle;Max_cycle;Signal;HPM_P1;HPM_P2
2022/05/10 08:47:00;;;;;;;12.52;7.13;;;16.10;96.90;;;;;;5099413;27;1340996;-48
2022/05/10 08:49:27;;;;;;;11.68;5.13;;;16.00;96.60;;;;;;5130065;27;20429;-49
2022/05/10 08:51:54;;;;;;;11.25;5.43;;;16.10;96.40;;;;;;5123093;28;20048;-50
2022/05/10 08:54:20;;;;;;;9.93;4.53;;;16.30;96.30;;;;;;5121125;28;20051;-47
2022/05/10 08:56:47;;;;;;;7.68;4.22;;;16.30;96.00;;;;;;5101437;28;20039;-51
2022/05/10 08:59:14;;;;;;;5.93;3.92;;;16.40;96.00;;;;;;5122236;27;20058;-46
2022/05/10 09:01:41;;;;;;;10.93;4.53;;;16.40;96.00;;;;;;5110501;28;20156;-50
2022/05/10 09:04:08;;;;;;;10.23;4.40;;;16.60;95.80;;;;;;5122901;28;20040;-49
2022/05/10 09:06:34;;;;;;;13.52;4.13;;;16.60;95.60;;;;;;5111008;28;20044;-51
2022/05/10 09:09:01;;;;;;;8.75;3.70;;;16.60;95.50;;;;;;5120706;28;20040;-50
2022/05/10 09:11:48;;;;;;;9.05;3.90;;;16.60;95.50;;;;;;5120532;27;20098;-48
2022/05/10 09:14:14;;;;;;;6.68;3.65;;;16.60;95.50;;;;;;5117440;28;20093;-49
2022/05/10 09:16:41;;;;;;;7.60;4.18;;;16.70;95.70;;;;;;5120215;27;20040;-45
2022/05/10 09:19:08;;;;;;;9.80;3.45;;;16.80;95.50;;;;;;5122011;28;20036;-46
2022/05/10 09:21:40;;;;;;;7.45;3.42;;;16.80;95.50;;;;;;5114545;28;20043;-44
2022/05/10 09:24:08;;;;;;;6.03;3.53;;;16.90;95.60;;;;;;5115853;28;20551;-46
2022/05/10 09:26:34;;;;;;;9.07;3.40;;;16.80;95.60;;;;;;5121277;28;20100;-45
2022/05/10 09:29:01;;;;;;;9.68;3.15;;;16.80;95.60;;;;;;5110665;28;20036;-45
2022/05/10 09:34:46;;;;;;;7.50;3.00;;;17.00;95.90;;;;;;5124445;27;20043;-48
2022/05/10 09:37:13;;;;;;;9.02;2.95;;;17.00;95.90;;;;;;5125860;27;20032;-47
2022/05/10 09:39:40;;;;;;;4.97;3.03;;;17.10;96.10;;;;;;5116896;27;20112;-43
2022/05/10 09:42:06;;;;;;;6.03;2.85;;;17.20;96.10;;;;;;5119294;28;20046;-48
2022/05/10 09:44:33;;;;;;;6.50;2.78;;;17.30;96.10;;;;;;5120806;28;20065;-43
2022/05/10 09:47:00;;;;;;;7.20;2.80;;;17.30;95.70;;;;;;5125549;27;20494;-46
2022/05/10 09:49:29;;;;;;;8.40;2.80;;;17.30;95.70;;;;;;5118890;28;20047;-45
2022/05/10 09:51:56;;;;;;;6.43;2.80;;;17.30;95.80;;;;;;5117273;28;20468;-44
2022/05/10 09:54:23;;;;;;;103.78;34.33;;;17.40;96.10;;;;;;5127890;28;20089;-44
2022/05/10 09:56:49;;;;;;;14.32;5.90;;;17.30;96.10;;;;;;5113127;28;20486;-46
2022/05/10 09:59:16;;;;;;;30.33;11.30;;;17.30;95.90;;;;;;5099917;28;20520;-48
2022/05/10 10:01:43;;;;;;;9.88;4.18;;;17.40;95.90;;;;;;5107568;28;20047;-50
2022/05/10 10:04:10;;;;;;;9.10;3.60;;;17.40;96.20;;;;;;5115526;28;20051;-50
2022/05/10 10:06:37;;;;;;;9.30;3.50;;;17.50;95.60;;;;;;5115258;28;20044;-47
2022/05/10 10:09:03;;;;;;;22.33;15.38;;;17.60;95.30;;;;;;5114132;28;20036;-47
2022/05/10 10:11:30;;;;;;;10.23;3.53;;;17.80;95.00;;;;;;5115344;28;20040;-45
2022/05/10 10:13:57;;;;;;;7.80;3.95;;;17.90;95.00;;;;;;5115309;28;20432;-47
2022/05/10 10:16:24;;;;;;;8.32;3.00;;;18.00;94.50;;;;;;5115319;27;20044;-47
2022/05/10 10:18:52;;;;;;;8.15;2.90;;;18.00;94.40;;;;;;5115109;28;20055;-43
2022/05/10 10:21:19;;;;;;;7.32;3.22;;;18.10;94.50;;;;;;5095159;28;20130;-49
2022/05/10 10:23:46;;;;;;;9.20;3.25;;;18.30;94.10;;;;;;5095788;28;20090;-48
2022/05/10 10:26:13;;;;;;;7.75;3.50;;;18.50;94.00;;;;;;5095721;28;20036;-47
2022/05/10 10:28:39;;;;;;;6.70;2.72;;;18.80;93.50;;;;;;5095740;28;20432;-50
2022/05/10 10:31:06;;;;;;;10.52;4.28;;;18.90;93.00;;;;;;5102445;28;20482;-46
2022/05/10 10:33:36;;;;;;;10.25;3.15;;;19.00;93.00;;;;;;5095428;28;20040;-49
2022/05/10 10:36:03;;;;;;;5.30;2.63;;;19.00;92.70;;;;;;5095727;28;20063;-50
2022/05/10 10:38:29;;;;;;;6.90;3.17;;;19.10;92.60;;;;;;5095615;28;20042;-45
2022/05/10 10:40:56;;;;;;;6.70;2.97;;;19.10;92.50;;;;;;5101840;28;20047;-49
2022/05/10 10:43:23;;;;;;;5.32;2.53;;;19.00;92.60;;;;;;5101234;28;20552;-47
2022/05/10 10:45:50;;;;;;;7.40;3.03;;;19.00;92.40;;;;;;5093799;28;20060;-51
2022/05/10 10:48:17;;;;;;;5.45;2.83;;;18.90;92.60;;;;;;5093699;28;20087;-51
2022/05/10 10:50:44;;;;;;;6.40;2.70;;;19.10;92.60;;;;;;5108334;28;20043;-50
2022/05/10 10:53:11;;;;;;;6.78;2.88;;;19.00;92.50;;;;;;5108089;28;20137;-46
2022/05/10 10:55:38;;;;;;;7.43;2.88;;;19.00;92.60;;;;;;5094045;28;20367;-45
2022/05/10 10:58:05;;;;;;;10.57;3.30;;;18.90;92.70;;;;;;5094968;28;20105;-51
2022/05/10 11:00:32;;;;;;;6.22;3.13;;;18.90;92.80;;;;;;5114554;28;20085;-47
2022/05/10 11:02:59;;;;;;;8.40;3.45;;;18.70;92.90;;;;;;5112895;28;20042;-52
2022/05/10 11:05:28;;;;;;;5.40;3.13;;;18.60;93.10;;;;;;5114528;28;20545;-48
2022/05/10 11:07:54;;;;;;;8.30;3.03;;;18.60;93.10;;;;;;5094477;28;20118;-50
2022/05/10 11:10:23;;;;;;;6.35;3.40;;;18.70;93.30;;;;;;5093989;28;20436;-50
2022/05/10 11:12:52;;;;;;;6.03;3.30;;;18.80;93.10;;;;;;5107821;28;20031;-46
2022/05/10 11:15:20;;;;;;;6.72;3.33;;;18.80;92.90;;;;;;5094467;28;20040;-47
2022/05/10 11:17:48;;;;;;;5.85;3.17;;;18.80;93.10;;;;;;5094730;28;20119;-51
2022/05/10 11:20:15;;;;;;;6.10;3.28;;;18.70;93.30;;;;;;5095215;28;20039;-47
2022/05/10 11:22:42;;;;;;;6.90;3.13;;;18.60;93.30;;;;;;5094716;28;20073;-50
2022/05/10 11:25:09;;;;;;;6.63;3.10;;;18.50;93.30;;;;;;5107701;28;20039;-46
2022/05/10 11:27:38;;;;;;;23.30;16.50;;;18.50;93.40;;;;;;5114209;28;20047;-48
2022/05/10 11:30:05;;;;;;;9.35;3.88;;;18.50;93.50;;;;;;5110587;28;20047;-48
2022/05/10 11:32:32;;;;;;;7.50;3.15;;;18.40;93.60;;;;;;5114283;28;20092;-47
2022/05/10 11:34:59;;;;;;;9.95;3.20;;;18.40;93.80;;;;;;5107578;28;20036;-51
2022/05/10 11:37:26;;;;;;;4.85;2.45;;;18.40;93.80;;;;;;5107287;28;20040;-53
2022/05/10 11:39:53;;;;;;;6.38;2.35;;;18.40;93.60;;;;;;5107508;28;20035;-49
2022/05/10 11:42:20;;;;;;;4.20;2.25;;;18.30;93.80;;;;;;5111920;28;20036;-48
2022/05/10 11:44:47;;;;;;;4.63;2.40;;;18.00;94.10;;;;;;5112699;28;20459;-48
2022/05/10 11:47:14;;;;;;;5.95;2.97;;;18.00;94.30;;;;;;5112937;28;20066;-51
2022/05/10 11:49:40;;;;;;;6.65;3.03;;;17.90;94.60;;;;;;5113769;28;20043;-51
2022/05/10 11:52:07;;;;;;;5.70;3.95;;;17.70;94.90;;;;;;5108839;28;20039;-52
2022/05/10 11:54:34;;;;;;;6.10;2.85;;;17.60;95.10;;;;;;5112025;28;20039;-51
2022/05/10 11:57:01;;;;;;;6.78;3.13;;;17.50;95.50;;;;;;5113085;28;20036;-48
2022/05/10 17:33:48;;;;;;;8.05;1.70;;;21.60;63.30;;;;;;5111208;27;20429;-49
2022/05/10 17:36:15;;;;;;;10.10;2.25;;;21.20;64.60;;;;;;5091038;28;20387;-45
2022/05/10 17:38:42;;;;;;;8.38;2.13;;;20.90;65.00;;;;;;5091094;28;20036;-50
2022/05/10 17:41:09;;;;;;;8.38;2.40;;;20.70;65.20;;;;;;5105579;28;20038;-45
2022/05/10 17:43:35;;;;;;;8.07;1.88;;;20.50;64.80;;;;;;5110463;28;20111;-48
2022/05/10 17:46:02;;;;;;;9.63;2.00;;;20.30;66.10;;;;;;5110333;28;20075;-47
2022/05/10 17:48:29;;;;;;;7.25;1.85;;;20.20;66.80;;;;;;5109450;28;20040;-51
2022/05/10 17:50:57;;;;;;;10.52;2.30;;;20.20;66.80;;;;;;5110311;28;20035;-44
2022/05/10 17:53:24;;;;;;;9.25;2.03;;;20.20;66.90;;;;;;5110008;28;20110;-45
2022/05/10 17:56:01;;;;;;;6.68;1.95;;;20.20;67.10;;;;;;5110640;28;20067;-48
2022/05/10 17:58:28;;;;;;;7.35;1.63;;;20.20;67.30;;;;;;5110274;28;20044;-49
2022/05/10 18:00:55;;;;;;;10.02;2.30;;;20.10;67.50;;;;;;5090458;28;20384;-44
2022/05/10 18:03:22;;;;;;;7.68;1.67;;;20.00;67.20;;;;;;5089984;28;20044;-45
2022/05/10 18:05:49;;;;;;;8.95;2.70;;;20.00;67.80;;;;;;5090247;28;20391;-44
2022/05/10 18:08:17;;;;;;;11.32;2.00;;;20.00;70.60;;;;;;5109978;28;20127;-48
2022/05/10 18:10:44;;;;;;;8.25;2.33;;;19.90;73.00;;;;;;5110304;28;20471;-43
2022/05/10 18:13:11;;;;;;;10.80;3.00;;;19.90;74.00;;;;;;5109606;28;20043;-45
2022/05/10 18:15:38;;;;;;;11.35;2.88;;;19.70;74.80;;;;;;5109948;28;20040;-44
2022/05/10 18:18:09;;;;;;;11.65;3.20;;;19.70;75.60;;;;;;5110132;28;20040;-46
2022/05/10 18:20:36;;;;;;;9.65;2.55;;;19.60;76.20;;;;;;5089768;28;20074;-49
2022/05/10 18:23:03;;;;;;;9.40;2.42;;;19.50;76.30;;;;;;5089708;28;20070;-53
2022/05/10 18:25:30;;;;;;;16.95;3.40;;;19.40;76.80;;;;;;5089826;28;20064;-48
2022/05/10 18:27:57;;;;;;;11.10;2.20;;;19.30;76.90;;;;;;5089861;28;20415;-49
2022/05/10 18:30:24;;;;;;;11.77;3.45;;;19.20;77.20;;;;;;5089826;28;20379;-50
2022/05/10 18:32:51;;;;;;;9.70;2.25;;;19.20;77.40;;;;;;5089511;28;20048;-46
2022/05/10 18:35:18;;;;;;;15.20;2.72;;;19.10;77.60;;;;;;5089726;28;20394;-50
2022/05/10 18:37:45;;;;;;;10.18;2.55;;;19.00;77.70;;;;;;5089108;28;20040;-46
2022/05/10 18:40:11;;;;;;;10.95;2.63;;;18.90;78.20;;;;;;5096585;28;20044;-46
2022/05/10 18:42:38;;;;;;;10.68;3.30;;;18.80;78.20;;;;;;5109362;28;20040;-44
2022/05/10 18:45:05;;;;;;;10.68;2.10;;;18.70;78.60;;;;;;5096438;28;20042;-44
2022/05/10 18:47:33;;;;;;;13.30;2.70;;;18.70;78.80;;;;;;5095757;28;20044;-50
2022/05/10 18:50:00;;;;;;;13.80;3.13;;;18.60;79.00;;;;;;5095701;28;20059;-47
2022/05/10 18:52:27;;;;;;;14.07;3.03;;;18.50;79.40;;;;;;5077509;28;20429;-50
2022/05/10 18:54:54;;;;;;;10.00;2.55;;;18.50;80.10;;;;;;5095617;28;20097;-47
2022/05/10 18:57:21;;;;;;;12.70;2.70;;;18.40;80.20;;;;;;5095236;28;20102;-45
2022/05/10 18:59:48;;;;;;;12.38;3.10;;;18.30;80.00;;;;;;5094767;28;20159;-45
2022/05/10 19:02:20;;;;;;;12.02;2.95;;;18.30;80.10;;;;;;5095619;28;20059;-44
2022/05/10 19:04:47;;;;;;;12.70;2.70;;;18.20;80.30;;;;;;5094478;28;20043;-49
2022/05/10 19:07:15;;;;;;;12.27;2.70;;;18.10;80.60;;;;;;5093265;28;20052;-52
2022/05/10 19:09:43;;;;;;;10.00;2.47;;;18.10;81.20;;;;;;5095693;28;20067;-56
2022/05/10 19:12:10;;;;;;;13.98;2.60;;;18.00;80.60;;;;;;5090464;28;20036;-47
2022/05/10 19:14:37;;;;;;;14.35;2.70;;;17.90;80.70;;;;;;5093358;28;20123;-52
2022/05/10 19:17:04;;;;;;;10.55;2.35;;;17.90;80.50;;;;;;5093992;28;20109;-46
2022/05/10 19:19:31;;;;;;;13.38;2.55;;;17.80;80.60;;;;;;5095361;28;20036;-47
2022/05/10 19:21:58;;;;;;;9.73;2.83;;;17.70;80.70;;;;;;5089681;28;20033;-51
2022/05/10 19:24:27;;;;;;;13.60;2.90;;;17.60;81.00;;;;;;5093945;28;20436;-44
2022/05/10 19:26:53;;;;;;;11.05;2.80;;;17.50;81.50;;;;;;5093373;28;20124;-46
2022/05/10 19:29:20;;;;;;;11.57;3.03;;;17.50;81.50;;;;;;5093730;28;20044;-45
2022/05/10 19:31:50;;;;;;;13.57;2.83;;;17.50;81.80;;;;;;5088505;28;20480;-44
2022/05/10 19:34:17;;;;;;;11.70;2.63;;;17.40;82.00;;;;;;5078927;28;20046;-51
2022/05/10 19:36:44;;;;;;;7.95;2.25;;;17.30;82.50;;;;;;5090188;28;20090;-47
2022/05/10 19:39:12;;;;;;;11.95;2.78;;;17.30;82.00;;;;;;5086593;28;20442;-45
2022/05/10 19:41:39;;;;;;;10.82;2.60;;;17.20;81.70;;;;;;5076667;28;20098;-48
2022/05/10 19:44:06;;;;;;;10.98;2.65;;;17.10;81.80;;;;;;5076264;28;20040;-48
2022/05/10 19:46:33;;;;;;;11.77;2.65;;;17.20;82.10;;;;;;5093214;28;20040;-46
2022/05/10 19:49:03;;;;;;;14.25;2.97;;;17.20;81.90;;;;;;5091800;28;20070;-49
2022/05/10 19:51:30;;;;;;;9.90;2.20;;;17.20;81.80;;;;;;5093912;28;20043;-47
2022/05/10 19:53:56;;;;;;;10.98;2.33;;;17.10;81.70;;;;;;5094498;28;20127;-47
2022/05/10 19:56:23;;;;;;;11.23;2.17;;;17.10;81.70;;;;;;5082653;28;20550;-44
2022/05/10 19:58:50;;;;;;;12.15;3.80;;;17.00;81.80;;;;;;5075056;28;20041;-50
2022/05/10 20:06:48;;;;;;;;;;;16.90;81.80;;;;;;5073623;28;20454;-49
2022/05/10 20:09:16;;;;;;;12.02;2.53;;;16.80;82.10;;;;;;5074887;28;20389;-45
2022/05/10 20:11:43;;;;;;;12.75;2.53;;;16.80;82.10;;;;;;5073464;28;20075;-45
2022/05/10 20:14:10;;;;;;;13.27;2.30;;;16.80;81.90;;;;;;5081346;28;20039;-47
2022/05/10 20:16:37;;;;;;;8.95;2.03;;;16.80;82.10;;;;;;5074670;28;20032;-50
2022/05/10 20:19:03;;;;;;;8.75;2.10;;;16.80;82.00;;;;;;5074681;28;20472;-50
2022/05/10 20:21:31;;;;;;;11.38;2.58;;;16.70;81.90;;;;;;5075747;28;20051;-49
2022/05/10 20:23:58;;;;;;;13.63;2.65;;;16.70;82.20;;;;;;5092744;28;20032;-47
2022/05/10 20:26:25;;;;;;;9.77;2.42;;;16.70;82.20;;;;;;5092065;28;20062;-52
2022/05/10 20:28:51;;;;;;;12.07;2.22;;;16.60;82.30;;;;;;5091674;28;20048;-46
2022/05/10 20:31:18;;;;;;;12.73;2.95;;;16.60;82.20;;;;;;5091156;28;20085;-47
2022/05/10 20:33:46;;;;;;;12.50;3.08;;;16.60;83.20;;;;;;5084712;28;20475;-50
2022/05/10 20:36:19;;;;;;;11.02;2.35;;;16.60;82.30;;;;;;5088459;28;20051;-47
2022/05/10 20:38:45;;;;;;;10.82;2.67;;;16.50;82.40;;;;;;5078430;28;20036;-48
2022/05/10 20:41:13;;;;;;;10.13;2.85;;;16.40;82.70;;;;;;5080278;28;20044;-46
2022/05/10 20:43:40;;;;;;;11.15;2.58;;;16.40;82.80;;;;;;5082181;28;20032;-48
2022/05/10 20:46:07;;;;;;;13.55;2.90;;;16.40;82.50;;;;;;5078746;28;20044;-52
2022/05/10 20:48:34;;;;;;;9.20;2.67;;;16.30;82.50;;;;;;5090253;28;20040;-46
2022/05/10 20:51:01;;;;;;;10.45;2.65;;;16.30;82.70;;;;;;5083425;28;20043;-44
2022/05/10 20:53:28;;;;;;;11.95;2.40;;;16.30;83.10;;;;;;5073889;28;20036;-46
2022/05/10 20:55:54;;;;;;;9.65;2.30;;;16.30;83.00;;;;;;5078626;28;20038;-50
2022/05/10 20:58:21;;;;;;;12.50;2.20;;;16.20;83.10;;;;;;5088915;28;20039;-51
2022/05/10 21:00:48;;;;;;;10.57;2.33;;;16.20;83.20;;;;;;5082133;28;20055;-50
2022/05/10 21:03:15;;;;;;;10.15;2.45;;;16.20;83.70;;;;;;5083459;28;20105;-47
2022/05/10 21:05:42;;;;;;;9.18;2.28;;;16.10;83.50;;;;;;5079090;28;20045;-48
2022/05/10 21:08:27;;;;;;;10.02;2.72;;;16.10;83.90;;;;;;5084245;28;20521;-44
2022/05/10 21:10:54;;;;;;;10.27;2.55;;;16.00;84.00;;;;;;5074461;28;20123;-49
2022/05/10 21:13:22;;;;;;;11.98;2.30;;;16.00;84.10;;;;;;5075692;28;20039;-46
2022/05/10 21:16:07;;;;;;;11.70;2.50;;;16.00;84.30;;;;;;5075607;28;20055;-49
2022/05/10 21:18:53;;;;;;;;;;;16.00;84.50;;;;;;5081862;28;20127;-50
2022/05/10 21:21:38;;;;;;;;;;;16.00;84.90;;;;;;5090452;28;20010;-49
2022/05/10 21:24:24;;;;;;;;;;;15.90;85.30;;;;;;5090191;28;20002;-47
2022/05/10 21:27:11;;;;;;;;;;;15.90;85.50;;;;;;5089400;28;20282;-49
2022/05/10 21:32:24;;;;;;;;;;;15.90;85.90;;;;;;5083443;28;20291;-50
2022/05/10 21:34:51;;;;;;;;;;;15.90;86.00;;;;;;5086752;28;20351;-47
2022/05/10 21:37:18;;;;;;;;;;;15.90;86.10;;;;;;5083135;28;19979;-53
2022/05/10 21:39:45;;;;;;;;;;;15.90;86.40;;;;;;5085788;28;19966;-48
2022/05/10 21:42:12;;;;;;;;;;;15.90;86.40;;;;;;5086688;28;19920;-45
2022/05/10 21:44:39;;;;;;;;;;;15.90;86.60;;;;;;5091726;28;20011;-44
2022/05/10 21:47:05;;;;;;;;;;;15.90;86.70;;;;;;5083261;28;19986;-45
2022/05/10 21:49:32;;;;;;;;;;;15.90;87.00;;;;;;5084950;28;20567;-47
